createdAt,value
2022-10-01T00:00:50.891Z,7.90
2022-10-01T00:03:18.377Z,7.90
2022-10-01T00:05:45.661Z,7.90
2022-10-01T00:08:16.756Z,7.90
2022-10-01T00:10:44.155Z,7.90
2022-10-01T00:13:11.393Z,7.80
2022-10-01T00:15:42.193Z,7.60
2022-10-01T00:18:10.453Z,7.40
2022-10-01T00:20:43.662Z,7.30
2022-10-01T00:23:11.961Z,7.30
2022-10-01T00:25:39.307Z,7.30
2022-10-01T00:28:07.020Z,7.30
2022-10-01T00:30:38.380Z,7.30
2022-10-01T00:33:07.231Z,7.40
2022-10-01T00:35:34.206Z,7.40
2022-10-01T00:38:01.222Z,7.40
2022-10-01T00:40:28.267Z,7.50
2022-10-01T00:42:55.270Z,7.60
2022-10-01T00:45:22.361Z,7.60
2022-10-01T00:47:51.975Z,7.60
2022-10-01T00:50:22.006Z,7.70
2022-10-01T00:52:52.366Z,7.70
2022-10-01T00:55:23.823Z,7.60
2022-10-01T00:57:50.960Z,7.40
2022-10-01T01:00:18.109Z,7.50
2022-10-01T01:02:45.218Z,7.50
2022-10-01T01:05:13.569Z,7.60
2022-10-01T01:07:44.964Z,7.70
2022-10-01T01:10:13.641Z,7.70
2022-10-01T01:12:45.561Z,7.70
2022-10-01T01:15:25.946Z,7.70
2022-10-01T01:17:56.512Z,7.70
2022-10-01T01:20:40.442Z,7.80
2022-10-01T01:23:16.686Z,7.70
2022-10-01T01:26:06.102Z,7.70
2022-10-01T01:28:35.633Z,7.60
2022-10-01T01:31:09.020Z,7.60
2022-10-01T01:33:37.464Z,7.50
2022-10-01T01:36:09.778Z,7.40
2022-10-01T01:38:41.394Z,7.20
2022-10-01T01:41:09.097Z,7.10
2022-10-01T01:43:38.089Z,7.00
2022-10-01T01:46:06.154Z,6.90
2022-10-01T01:48:36.518Z,6.80
2022-10-01T01:51:10.140Z,6.80
2022-10-01T01:53:37.377Z,6.60
2022-10-01T01:56:05.379Z,6.60
2022-10-01T01:58:33.442Z,6.60
2022-10-01T02:01:00.463Z,6.50
2022-10-01T02:03:29.526Z,6.50
2022-10-01T02:05:56.474Z,6.50
2022-10-01T02:08:43.219Z,6.60
2022-10-01T02:11:13.188Z,6.60
2022-10-01T02:14:03.532Z,6.60
2022-10-01T02:16:33.903Z,6.50
2022-10-01T02:19:00.874Z,6.50
2022-10-01T02:21:31.210Z,6.50
2022-10-01T02:24:01.554Z,6.40
2022-10-01T02:26:29.637Z,6.40
2022-10-01T02:28:59.681Z,6.50
2022-10-01T02:31:28.502Z,6.50
2022-10-01T02:33:56.145Z,6.40
2022-10-01T02:36:24.197Z,6.30
2022-10-01T02:38:51.818Z,6.20
2022-10-01T02:41:23.412Z,6.10
2022-10-01T02:43:54.062Z,6.00
2022-10-01T02:46:23.910Z,5.90
2022-10-01T02:48:51.908Z,5.90
2022-10-01T02:51:27.985Z,5.90
2022-10-01T02:54:01.674Z,5.80
2022-10-01T02:56:49.062Z,5.90
2022-10-01T02:59:17.326Z,5.80
2022-10-01T03:01:44.434Z,5.90
2022-10-01T03:04:11.350Z,6.00
2022-10-01T03:06:38.213Z,6.20
2022-10-01T03:09:05.121Z,6.40
2022-10-01T03:11:32.282Z,6.50
2022-10-01T03:13:59.331Z,6.60
2022-10-01T03:16:26.233Z,6.70
2022-10-01T03:18:53.258Z,6.70
2022-10-01T03:21:20.256Z,6.70
2022-10-01T03:23:47.146Z,6.80
2022-10-01T03:26:13.995Z,6.80
2022-10-01T03:28:40.871Z,6.90
2022-10-01T03:31:08.933Z,6.80
2022-10-01T03:33:36.207Z,6.90
2022-10-01T03:36:03.991Z,6.90
2022-10-01T03:38:31.400Z,6.90
2022-10-01T03:40:58.536Z,6.90
2022-10-01T03:43:29.039Z,6.90
2022-10-01T03:45:56.951Z,7.00
2022-10-01T03:48:24.152Z,7.00
2022-10-01T03:50:58.139Z,7.00
2022-10-01T03:53:28.535Z,7.10
2022-10-01T03:55:55.467Z,7.10
2022-10-01T03:58:23.509Z,7.10
2022-10-01T04:00:50.592Z,7.10
2022-10-01T04:03:17.970Z,7.10
2022-10-01T04:05:45.459Z,7.10
2022-10-01T04:08:13.029Z,7.10
2022-10-01T04:10:40.254Z,7.10
2022-10-01T04:13:08.522Z,7.10
2022-10-01T04:15:35.425Z,7.00
2022-10-01T04:18:05.797Z,6.90
2022-10-01T04:20:33.846Z,6.90
2022-10-01T04:23:00.916Z,6.80
2022-10-01T04:25:28.376Z,6.90
2022-10-01T04:27:59.663Z,6.90
2022-10-01T04:30:27.760Z,7.00
2022-10-01T04:32:54.636Z,7.00
2022-10-01T04:35:22.329Z,7.00
2022-10-01T04:37:59.355Z,6.90
2022-10-01T04:40:26.242Z,7.00
2022-10-01T04:42:53.219Z,7.00
2022-10-01T04:45:20.072Z,7.00
2022-10-01T04:47:48.373Z,6.90
2022-10-01T04:50:16.411Z,6.80
2022-10-01T04:52:46.532Z,6.70
2022-10-01T04:55:14.214Z,6.60
2022-10-01T04:57:41.323Z,6.40
2022-10-01T05:00:09.402Z,6.00
2022-10-01T05:02:36.708Z,5.70
2022-10-01T05:05:04.593Z,5.70
2022-10-01T05:07:32.077Z,5.70
2022-10-01T05:10:00.003Z,5.80
2022-10-01T05:16:17.386Z,5.90
2022-10-01T05:19:51.630Z,6.10
2022-10-01T05:22:15.190Z,6.30
2022-10-01T05:28:21.973Z,6.30
2022-10-01T05:31:00.672Z,6.50
2022-10-01T05:33:31.911Z,7.60
2022-10-01T05:36:07.486Z,8.80
2022-10-01T05:42:08.453Z,9.40
2022-10-01T05:47:24.491Z,9.10
2022-10-01T05:49:51.936Z,9.00
2022-10-01T05:52:19.456Z,9.30
2022-10-01T05:54:46.895Z,9.40
2022-10-01T06:00:13.364Z,9.30
2022-10-01T06:03:07.672Z,9.20
2022-10-01T06:05:35.681Z,9.20
2022-10-01T06:08:07.933Z,9.20
2022-10-01T06:10:36.985Z,9.20
2022-10-01T06:13:20.905Z,9.20
2022-10-01T06:16:08.550Z,9.20
2022-10-01T06:21:27.819Z,9.80
2022-10-01T06:24:13.203Z,10.00
2022-10-01T06:26:47.350Z,9.80
2022-10-01T06:29:56.283Z,9.50
2022-10-01T06:32:32.814Z,9.00
2022-10-01T06:35:04.859Z,8.70
2022-10-01T06:37:32.541Z,8.60
2022-10-01T06:40:05.953Z,8.60
2022-10-01T06:42:56.742Z,8.70
2022-10-01T06:45:41.504Z,8.60
2022-10-01T06:48:14.211Z,8.70
2022-10-01T06:50:44.676Z,8.60
2022-10-01T06:54:06.103Z,8.50
2022-10-01T06:56:18.471Z,8.50
2022-10-01T06:59:06.685Z,8.60
2022-10-01T07:11:33.311Z,8.30
2022-10-01T07:14:22.398Z,8.20
2022-10-01T07:17:03.915Z,8.00
2022-10-01T07:19:42.349Z,7.90
2022-10-01T07:22:31.938Z,7.90
2022-10-01T07:25:07.234Z,7.80
2022-10-01T07:27:49.409Z,7.80
2022-10-01T07:30:31.011Z,7.60
2022-10-01T07:33:06.594Z,7.30
2022-10-01T07:35:56.881Z,7.40
2022-10-01T07:38:56.060Z,7.20
2022-10-01T07:41:38.113Z,7.40
2022-10-01T07:47:13.682Z,7.60
2022-10-01T07:49:46.221Z,7.70
2022-10-01T07:55:19.782Z,7.60
2022-10-01T07:58:18.491Z,7.90
2022-10-01T08:03:49.856Z,7.60
2022-10-01T08:06:25.596Z,7.70
2022-10-01T08:08:58.455Z,7.80
2022-10-01T08:11:49.992Z,8.10
2022-10-01T08:14:26.633Z,8.20
2022-10-01T08:17:00.696Z,8.40
2022-10-01T08:19:38.150Z,8.50
2022-10-01T08:22:16.531Z,8.50
2022-10-01T08:24:55.866Z,8.60
2022-10-01T08:27:28.594Z,8.70
2022-10-01T08:30:01.234Z,8.60
2022-10-01T08:32:34.903Z,8.80
2022-10-01T08:35:08.044Z,8.40
2022-10-01T08:37:42.289Z,8.50
2022-10-01T08:40:20.083Z,8.40
2022-10-01T08:43:17.294Z,8.40
2022-10-01T08:45:53.060Z,8.30
2022-10-01T08:48:36.111Z,8.50
2022-10-01T08:51:30.018Z,8.40
2022-10-01T08:54:33.933Z,8.30
2022-10-01T09:00:30.034Z,8.60
2022-10-01T09:02:59.010Z,8.50
2022-10-01T09:05:30.645Z,8.60
2022-10-01T09:08:24.585Z,8.40
2022-10-01T09:11:09.648Z,8.60
2022-10-01T09:13:40.210Z,8.50
2022-10-01T09:16:19.925Z,8.60
2022-10-01T09:19:02.162Z,8.60
2022-10-01T09:21:42.035Z,8.80
2022-10-01T09:24:13.339Z,8.80
2022-10-01T09:26:43.427Z,9.00
2022-10-01T09:29:17.688Z,9.20
2022-10-01T09:31:47.727Z,9.20
2022-10-01T09:34:17.730Z,9.30
2022-10-01T09:37:06.768Z,9.50
2022-10-01T09:39:40.430Z,9.60
2022-10-01T09:42:08.261Z,9.70
2022-10-01T09:44:36.531Z,9.80
2022-10-01T09:47:04.181Z,9.70
2022-10-01T09:49:44.142Z,9.70
2022-10-01T09:52:15.526Z,9.70
2022-10-01T09:55:01.832Z,9.60
2022-10-01T10:01:07.844Z,9.70
2022-10-01T10:03:53.432Z,9.80
2022-10-01T10:06:32.453Z,9.80
2022-10-01T10:09:01.287Z,9.90
2022-10-01T10:12:04.320Z,9.80
2022-10-01T10:14:51.197Z,9.80
2022-10-01T10:18:11.845Z,9.60
2022-10-01T10:33:08.529Z,9.20
2022-10-01T10:35:38.902Z,9.00
2022-10-01T10:38:05.952Z,9.00
2022-10-01T10:40:48.124Z,9.00
2022-10-01T10:43:22.854Z,8.90
2022-10-01T10:45:56.804Z,8.80
2022-10-01T10:48:36.381Z,8.90
2022-10-01T10:51:04.992Z,8.80
2022-10-01T10:53:44.280Z,8.80
2022-10-01T10:56:35.968Z,8.70
2022-10-01T10:59:11.457Z,8.70
2022-10-01T11:01:59.880Z,8.70
2022-10-01T11:05:14.610Z,8.60
2022-10-01T11:08:42.315Z,8.60
2022-10-01T11:15:05.009Z,8.60
2022-10-01T11:18:04.671Z,8.70
2022-10-01T11:21:23.929Z,8.50
2022-10-01T11:26:41.276Z,8.70
2022-10-01T11:29:38.615Z,8.60
2022-10-01T11:32:48.387Z,8.70
2022-10-01T11:35:55.152Z,8.60
2022-10-01T11:44:49.895Z,8.60
2022-10-01T11:48:24.570Z,8.60
2022-10-01T11:51:20.247Z,8.60
2022-10-01T11:54:21.824Z,8.60
2022-10-01T12:01:04.968Z,8.60
2022-10-01T12:06:35.564Z,8.70
2022-10-01T12:09:19.259Z,8.60
2022-10-01T12:11:57.142Z,8.70
2022-10-01T12:15:07.535Z,8.60
2022-10-01T12:17:46.170Z,8.60
2022-10-01T12:20:51.287Z,8.50
2022-10-01T12:23:30.387Z,8.60
2022-10-01T12:26:12.672Z,8.50
2022-10-01T12:28:52.767Z,8.50
2022-10-01T12:31:36.015Z,8.50
2022-10-01T12:34:15.183Z,8.40
2022-10-01T12:37:04.696Z,8.40
2022-10-01T12:40:07.752Z,8.50
2022-10-01T12:43:17.558Z,8.10
2022-10-01T12:46:06.863Z,8.20
2022-10-01T12:48:54.757Z,8.20
2022-10-01T12:51:41.639Z,8.10
2022-10-01T12:54:35.486Z,8.20
2022-10-01T12:57:08.456Z,8.00
2022-10-01T12:59:44.532Z,7.80
2022-10-01T13:02:26.981Z,7.80
2022-10-01T13:05:15.945Z,7.90
2022-10-01T13:07:49.302Z,8.20
2022-10-01T13:10:27.885Z,8.20
2022-10-01T13:13:07.941Z,8.30
2022-10-01T13:15:40.358Z,8.40
2022-10-01T13:18:10.838Z,8.30
2022-10-01T13:20:44.028Z,8.30
2022-10-01T13:23:34.206Z,8.20
2022-10-01T13:26:21.974Z,8.20
2022-10-01T13:29:16.472Z,8.20
2022-10-01T13:31:57.437Z,8.30
2022-10-01T13:34:28.270Z,8.20
2022-10-01T13:36:55.597Z,8.30
2022-10-01T13:39:24.371Z,8.20
2022-10-01T13:41:57.753Z,8.30
2022-10-01T13:44:34.054Z,8.40
2022-10-01T13:47:10.280Z,8.50
2022-10-01T13:49:38.172Z,8.40
2022-10-01T13:52:06.189Z,8.50
2022-10-01T13:54:47.574Z,8.50
2022-10-01T13:57:28.807Z,8.50
2022-10-01T14:00:00.642Z,8.50
2022-10-01T14:02:36.851Z,8.40
2022-10-01T14:05:25.042Z,8.40
2022-10-01T14:07:55.820Z,8.50
2022-10-01T14:10:24.028Z,8.60
2022-10-01T14:13:10.130Z,8.80
2022-10-01T14:15:59.713Z,8.90
2022-10-01T14:18:31.967Z,9.00
2022-10-01T14:21:05.106Z,9.10
2022-10-01T14:23:49.968Z,9.10
2022-10-01T14:26:40.824Z,8.90
2022-10-01T14:29:22.972Z,8.90
2022-10-01T14:31:55.759Z,9.00
2022-10-01T14:34:43.162Z,9.10
2022-10-01T14:37:18.215Z,9.00
2022-10-01T14:40:10.355Z,9.00
2022-10-01T14:42:43.796Z,9.10
2022-10-01T14:45:29.863Z,9.10
2022-10-01T14:48:05.772Z,9.20
2022-10-01T14:50:48.308Z,9.30
2022-10-01T14:53:26.970Z,9.40
2022-10-01T14:56:06.988Z,9.20
2022-10-01T14:58:39.249Z,9.10
2022-10-01T15:01:07.187Z,9.00
2022-10-01T15:03:44.283Z,9.10
2022-10-01T15:06:19.511Z,9.00
2022-10-01T15:08:50.553Z,9.10
2022-10-01T15:11:22.144Z,9.10
2022-10-01T15:13:51.022Z,9.10
2022-10-01T15:16:22.200Z,9.20
2022-10-01T15:19:00.178Z,9.30
2022-10-01T15:21:34.683Z,9.30
2022-10-01T15:24:06.102Z,9.30
2022-10-01T15:26:39.377Z,9.30
2022-10-01T15:29:12.181Z,9.30
2022-10-01T15:31:39.638Z,9.10
2022-10-01T15:34:09.956Z,9.10
2022-10-01T15:36:37.445Z,9.20
2022-10-01T15:39:13.688Z,9.20
2022-10-01T15:41:40.752Z,9.30
2022-10-01T15:44:27.563Z,9.00
2022-10-01T15:46:54.320Z,9.00
2022-10-01T15:49:24.381Z,9.00
2022-10-01T15:52:18.093Z,8.90
2022-10-01T15:54:45.652Z,9.00
2022-10-01T15:57:17.549Z,8.80
2022-10-01T15:59:45.573Z,8.70
2022-10-01T16:02:20.671Z,8.70
2022-10-01T16:04:48.425Z,8.90
2022-10-01T16:07:20.433Z,8.90
2022-10-01T16:09:52.090Z,9.00
2022-10-01T16:12:22.950Z,9.00
2022-10-01T16:14:58.036Z,8.90
2022-10-01T16:17:28.316Z,8.90
2022-10-01T16:20:00.154Z,8.70
2022-10-01T16:22:29.028Z,8.60
2022-10-01T16:24:59.165Z,8.50
2022-10-01T16:27:26.626Z,8.50
2022-10-01T16:30:09.949Z,8.60
2022-10-01T16:32:36.734Z,8.50
2022-10-01T16:35:23.202Z,8.50
2022-10-01T16:37:51.851Z,8.50
2022-10-01T16:40:19.555Z,8.50
2022-10-01T16:42:46.851Z,8.60
2022-10-01T16:45:18.848Z,8.60
2022-10-01T16:47:46.164Z,8.70
2022-10-01T16:50:13.739Z,8.70
2022-10-01T16:52:40.570Z,8.70
2022-10-01T16:55:27.057Z,8.70
2022-10-01T16:57:54.670Z,8.70
2022-10-01T17:00:23.529Z,8.60
2022-10-01T17:02:55.301Z,8.50
2022-10-01T17:05:24.226Z,8.50
2022-10-01T17:07:52.157Z,8.50
2022-10-01T17:10:20.202Z,8.50
2022-10-01T17:12:50.047Z,8.60
2022-10-01T17:15:19.433Z,8.50
2022-10-01T17:17:46.778Z,8.50
2022-10-01T17:20:13.805Z,8.50
2022-10-01T17:22:41.127Z,8.50
2022-10-01T17:25:08.026Z,8.60
2022-10-01T17:27:34.810Z,8.70
2022-10-01T17:30:01.698Z,8.80
2022-10-01T17:32:28.496Z,8.90
2022-10-01T17:34:55.251Z,8.80
2022-10-01T17:37:24.135Z,8.90
2022-10-01T17:39:51.381Z,8.90
2022-10-01T17:42:18.399Z,8.90
2022-10-01T17:44:45.308Z,9.00
2022-10-01T17:47:12.176Z,9.00
2022-10-01T17:49:38.957Z,9.00
2022-10-01T17:52:05.868Z,9.00
2022-10-01T17:54:33.320Z,9.00
2022-10-01T17:57:00.186Z,9.10
2022-10-01T17:59:26.990Z,9.00
2022-10-01T18:01:54.392Z,9.00
2022-10-01T18:04:21.602Z,9.10
2022-10-01T18:06:49.179Z,9.10
2022-10-01T18:09:16.013Z,9.10
2022-10-01T18:11:43.302Z,9.10
2022-10-01T18:14:10.352Z,8.90
2022-10-01T18:16:41.048Z,8.80
2022-10-01T18:21:57.563Z,8.80
2022-10-01T18:24:25.244Z,8.70
2022-10-01T18:26:52.157Z,8.70
2022-10-01T18:29:20.782Z,8.70
2022-10-01T18:31:51.886Z,8.70
2022-10-01T18:34:25.298Z,8.80
2022-10-01T18:36:55.086Z,8.80
2022-10-01T18:39:44.663Z,8.80
2022-10-01T18:42:20.772Z,8.80
2022-10-01T18:44:58.194Z,8.80
2022-10-01T18:47:48.358Z,8.80
2022-10-01T18:50:30.695Z,8.70
2022-10-01T18:53:00.348Z,8.70
2022-10-01T18:55:36.836Z,8.70
2022-10-01T18:58:03.698Z,8.80
2022-10-01T19:00:42.931Z,8.70
2022-10-01T19:03:42.566Z,8.70
2022-10-01T19:06:31.003Z,8.70
2022-10-01T19:09:04.968Z,8.70
2022-10-01T19:11:31.904Z,8.70
2022-10-01T19:14:16.251Z,8.70
2022-10-01T19:16:51.360Z,8.80
2022-10-01T19:19:21.237Z,8.70
2022-10-01T19:21:52.519Z,8.70
2022-10-01T19:24:29.693Z,8.80
2022-10-01T19:27:00.325Z,8.70
2022-10-01T19:29:39.196Z,8.60
2022-10-01T19:32:17.837Z,8.70
2022-10-01T19:34:48.290Z,8.60
2022-10-01T19:37:33.467Z,8.60
2022-10-01T19:40:07.030Z,8.60
2022-10-01T19:42:37.193Z,8.60
2022-10-01T19:45:13.331Z,8.70
2022-10-01T19:48:08.794Z,8.70
2022-10-01T19:50:38.655Z,8.80
2022-10-01T19:53:14.364Z,8.60
2022-10-01T19:55:42.074Z,8.60
2022-10-01T19:58:14.115Z,8.60
2022-10-01T20:00:41.425Z,8.70
2022-10-01T20:03:18.175Z,8.50
2022-10-01T20:09:27.517Z,8.70
2022-10-01T20:15:30.997Z,8.70
2022-10-01T20:18:14.732Z,8.70
2022-10-01T20:20:54.142Z,8.70
2022-10-01T20:23:24.513Z,8.60
2022-10-01T20:25:57.858Z,8.60
2022-10-01T20:28:25.322Z,8.50
2022-10-01T20:30:52.704Z,8.60
2022-10-01T20:33:26.684Z,8.60
2022-10-01T20:36:01.859Z,8.60
2022-10-01T20:38:49.460Z,8.60
2022-10-01T20:41:18.396Z,8.50
2022-10-01T20:43:49.802Z,8.40
2022-10-01T20:46:25.220Z,8.30
2022-10-01T20:48:56.777Z,8.30
2022-10-01T20:51:33.088Z,8.40
2022-10-01T20:54:08.366Z,8.40
2022-10-01T20:56:39.157Z,8.40
2022-10-01T20:59:27.764Z,8.40
2022-10-01T21:02:19.333Z,8.50
2022-10-01T21:04:54.247Z,8.50
2022-10-01T21:07:31.642Z,8.70
2022-10-01T21:10:03.543Z,8.70
2022-10-01T21:12:46.442Z,8.60
2022-10-01T21:18:26.721Z,8.60
2022-10-01T21:21:01.961Z,8.60
2022-10-01T21:24:25.171Z,8.60
2022-10-01T21:27:25.639Z,8.60
2022-10-01T21:30:55.380Z,8.60
2022-10-01T21:33:35.094Z,8.60
2022-10-01T21:36:06.348Z,8.60
2022-10-01T21:38:44.517Z,8.60
2022-10-01T21:41:17.598Z,8.70
2022-10-01T21:44:17.334Z,8.60
2022-10-01T21:50:14.462Z,8.70
2022-10-01T21:53:17.375Z,8.70
2022-10-01T21:56:06.382Z,8.70
2022-10-01T21:58:54.190Z,8.80
2022-10-01T22:01:27.823Z,8.80
2022-10-01T22:04:47.556Z,8.80
2022-10-01T22:07:25.687Z,8.90
2022-10-01T22:10:18.621Z,8.90
2022-10-01T22:12:52.273Z,8.90
2022-10-01T22:15:46.050Z,8.70
2022-10-01T22:18:38.512Z,8.70
2022-10-01T22:24:33.788Z,8.80
2022-10-01T22:27:12.587Z,8.80
2022-10-01T22:29:44.872Z,8.80
2022-10-01T22:32:14.243Z,8.70
2022-10-01T22:34:44.005Z,8.70
2022-10-01T22:37:17.537Z,8.60
2022-10-01T22:39:47.815Z,8.60
2022-10-01T22:42:24.313Z,8.60
2022-10-01T22:44:51.203Z,8.70
2022-10-01T22:47:38.490Z,8.70
2022-10-01T22:50:24.413Z,8.70
2022-10-01T22:53:04.169Z,8.70
2022-10-01T22:55:31.071Z,8.80
2022-10-01T22:58:10.860Z,8.80
2022-10-01T23:01:01.737Z,8.70
2022-10-01T23:03:29.039Z,8.70
2022-10-01T23:06:23.207Z,8.70
2022-10-01T23:08:53.600Z,8.80
2022-10-01T23:11:25.841Z,8.70
2022-10-01T23:13:56.821Z,8.70
2022-10-01T23:16:44.163Z,8.70
2022-10-01T23:19:26.377Z,8.60
2022-10-01T23:22:09.365Z,8.50
2022-10-01T23:24:45.494Z,8.60
2022-10-01T23:27:32.239Z,8.60
2022-10-01T23:30:06.187Z,8.70
2022-10-01T23:32:40.034Z,8.70
2022-10-01T23:35:15.078Z,8.70
2022-10-01T23:37:55.482Z,8.80
2022-10-01T23:40:28.110Z,8.80
2022-10-01T23:43:14.214Z,8.90
2022-10-01T23:46:00.582Z,8.80
2022-10-01T23:48:34.739Z,8.80
2022-10-01T23:51:20.804Z,8.80
2022-10-01T23:53:52.587Z,8.70
2022-10-01T23:56:41.369Z,8.60
2022-10-01T23:59:14.972Z,8.60
